createdAt,value
2022-08-11T00:00:43.612Z,45.21
2022-08-11T00:02:53.094Z,45.14
2022-08-11T00:04:57.834Z,45.26
2022-08-11T00:07:03.834Z,45.32
2022-08-11T00:09:10.132Z,45.27
2022-08-11T00:11:13.568Z,45.32
2022-08-11T00:13:16.861Z,45.25
2022-08-11T00:15:19.396Z,45.16
2022-08-11T00:17:28.461Z,45.54
2022-08-11T00:20:12.507Z,45.43
2022-08-11T00:22:04.574Z,45.24
2022-08-11T00:24:08.919Z,45.52
2022-08-11T00:26:12.444Z,45.85
2022-08-11T00:28:24.467Z,45.85
2022-08-11T00:30:40.036Z,46.04
2022-08-11T00:32:45.487Z,46.26
2022-08-11T00:34:48.195Z,46.24
2022-08-11T00:36:57.906Z,46.50
2022-08-11T00:39:05.352Z,46.58
2022-08-11T00:41:29.362Z,46.52
2022-08-11T00:43:50.210Z,46.79
2022-08-11T00:46:23.505Z,46.95
2022-08-11T00:49:16.184Z,47.23
2022-08-11T00:52:06.811Z,47.35
2022-08-11T00:54:53.631Z,47.47
2022-08-11T00:57:37.021Z,47.49
2022-08-11T01:00:22.943Z,47.68
2022-08-11T01:03:04.137Z,47.69
2022-08-11T01:05:33.680Z,47.97
2022-08-11T01:08:02.529Z,48.00
2022-08-11T01:10:14.642Z,48.38
2022-08-11T01:12:45.946Z,48.04
2022-08-11T01:15:15.839Z,48.02
2022-08-11T01:17:26.815Z,48.43
2022-08-11T01:20:46.415Z,48.29
2022-08-11T01:23:24.967Z,48.42
2022-08-11T01:25:57.699Z,48.38
2022-08-11T01:28:15.322Z,48.44
2022-08-11T01:30:44.743Z,48.51
2022-08-11T01:33:24.082Z,48.62
2022-08-11T01:35:53.595Z,48.41
2022-08-11T01:38:36.595Z,48.67
2022-08-11T01:40:41.298Z,48.50
2022-08-11T01:43:43.739Z,48.56
2022-08-11T01:46:08.642Z,48.71
2022-08-11T01:48:41.075Z,48.46
2022-08-11T01:51:17.513Z,48.66
2022-08-11T01:53:40.044Z,48.83
2022-08-11T01:56:09.189Z,48.96
2022-08-11T01:58:20.680Z,48.99
2022-08-11T02:01:01.650Z,49.36
2022-08-11T02:03:37.810Z,49.09
2022-08-11T02:06:30.411Z,49.42
2022-08-11T02:08:56.157Z,49.33
2022-08-11T02:11:28.068Z,49.36
2022-08-11T02:13:42.541Z,49.22
2022-08-11T02:15:52.032Z,49.40
2022-08-11T02:18:24.456Z,49.35
2022-08-11T02:21:05.074Z,49.49
2022-08-11T02:24:04.489Z,49.75
2022-08-11T02:26:14.857Z,49.83
2022-08-11T02:28:16.787Z,49.92
2022-08-11T02:30:25.992Z,50.00
2022-08-11T02:33:16.593Z,49.94
2022-08-11T02:35:29.290Z,50.12
2022-08-11T02:37:31.417Z,50.54
2022-08-11T02:39:47.534Z,50.20
2022-08-11T02:42:33.443Z,50.36
2022-08-11T02:45:20.128Z,50.25
2022-08-11T02:48:10.516Z,50.50
2022-08-11T02:50:27.984Z,50.72
2022-08-11T02:52:51.754Z,50.46
2022-08-11T02:55:12.204Z,50.53
2022-08-11T02:57:43.590Z,50.60
2022-08-11T03:00:01.030Z,50.50
2022-08-11T03:02:43.376Z,50.58
2022-08-11T03:05:17.262Z,50.67
2022-08-11T03:07:33.847Z,51.00
2022-08-11T03:09:38.976Z,50.98
2022-08-11T03:12:43.794Z,51.03
2022-08-11T03:15:13.554Z,50.95
2022-08-11T03:17:54.190Z,51.24
2022-08-11T03:20:08.310Z,50.96
2022-08-11T03:22:17.791Z,51.05
2022-08-11T03:24:29.611Z,51.16
2022-08-11T03:26:34.460Z,51.38
2022-08-11T03:28:53.804Z,51.32
2022-08-11T03:31:27.137Z,51.29
2022-08-11T03:33:53.876Z,51.54
2022-08-11T03:36:27.360Z,52.05
2022-08-11T03:38:44.847Z,52.08
2022-08-11T03:42:04.418Z,52.15
2022-08-11T03:44:17.803Z,52.16
2022-08-11T03:46:48.397Z,52.34
2022-08-11T03:49:15.456Z,52.46
2022-08-11T03:51:27.538Z,52.48
2022-08-11T03:54:24.294Z,52.71
2022-08-11T03:57:03.581Z,53.00
2022-08-11T03:59:17.424Z,52.81
2022-08-11T04:01:29.714Z,53.11
2022-08-11T04:04:08.849Z,53.25
2022-08-11T04:06:34.476Z,53.38
2022-08-11T04:09:13.516Z,53.39
2022-08-11T04:11:31.488Z,53.31
2022-08-11T04:13:33.274Z,53.43
2022-08-11T04:16:11.992Z,53.52
2022-08-11T04:18:23.527Z,53.64
2022-08-11T04:20:44.478Z,53.68
2022-08-11T04:23:07.816Z,53.41
2022-08-11T04:25:16.335Z,53.93
2022-08-11T04:27:23.735Z,54.08
2022-08-11T04:30:03.518Z,54.11
2022-08-11T04:32:21.494Z,54.00
2022-08-11T04:34:44.657Z,54.17
2022-08-11T04:37:27.021Z,54.23
2022-08-11T04:39:49.663Z,54.43
2022-08-11T04:42:31.517Z,54.60
2022-08-11T04:45:14.974Z,54.68
2022-08-11T04:48:04.231Z,54.82
2022-08-11T04:50:42.098Z,55.01
2022-08-11T04:53:21.055Z,55.14
2022-08-11T04:56:23.209Z,55.17
2022-08-11T04:59:02.207Z,55.51
2022-08-11T05:01:42.750Z,55.40
2022-08-11T05:04:40.344Z,55.57
2022-08-11T05:07:11.286Z,55.60
2022-08-11T05:09:24.755Z,55.71
2022-08-11T05:12:04.302Z,56.00
2022-08-11T05:14:30.321Z,56.10
2022-08-11T05:17:00.094Z,56.29
2022-08-11T05:19:22.809Z,56.27
2022-08-11T05:21:45.055Z,56.36
2022-08-11T05:24:11.545Z,56.49
2022-08-11T05:26:46.632Z,56.26
2022-08-11T05:29:19.737Z,56.31
2022-08-11T05:31:51.009Z,56.53
2022-08-11T05:34:18.371Z,56.56
2022-08-11T05:36:37.486Z,56.73
2022-08-11T05:38:58.735Z,56.66
2022-08-11T05:41:20.113Z,57.00
2022-08-11T05:44:20.056Z,57.01
2022-08-11T05:46:25.163Z,57.15
2022-08-11T05:48:52.494Z,57.19
2022-08-11T05:51:16.457Z,57.47
2022-08-11T05:53:46.266Z,57.52
2022-08-11T05:56:10.399Z,57.49
2022-08-11T05:58:13.561Z,57.54
2022-08-11T06:00:15.805Z,57.73
2022-08-11T06:02:18.230Z,57.79
2022-08-11T06:04:24.619Z,57.67
2022-08-11T06:06:29.262Z,57.40
2022-08-11T06:08:37.010Z,57.69
2022-08-11T06:10:41.493Z,57.93
2022-08-11T06:12:43.608Z,57.94
2022-08-11T06:14:46.535Z,58.14
2022-08-11T06:16:50.271Z,58.35
2022-08-11T06:18:52.285Z,58.06
2022-08-11T06:20:58.310Z,58.22
2022-08-11T06:23:03.875Z,58.24
2022-08-11T06:25:12.537Z,58.26
2022-08-11T06:27:21.326Z,58.58
2022-08-11T06:29:37.980Z,58.46
2022-08-11T06:31:59.648Z,58.50
2022-08-11T06:34:41.140Z,58.69
2022-08-11T06:37:00.891Z,58.56
2022-08-11T06:39:26.739Z,59.04
2022-08-11T06:41:44.620Z,58.85
2022-08-11T06:44:14.454Z,59.10
2022-08-11T06:46:24.753Z,59.14
2022-08-11T06:48:33.739Z,59.28
2022-08-11T06:50:54.879Z,59.35
2022-08-11T06:52:58.143Z,59.26
2022-08-11T06:55:55.818Z,59.12
2022-08-11T06:57:54.187Z,59.14
2022-08-11T07:00:15.453Z,59.26
2022-08-11T07:02:22.504Z,59.28
2022-08-11T07:04:43.325Z,59.02
2022-08-11T07:07:23.868Z,59.32
2022-08-11T07:09:43.797Z,59.44
2022-08-11T07:12:21.141Z,59.55
2022-08-11T07:14:46.545Z,59.88
2022-08-11T07:16:51.801Z,60.02
2022-08-11T07:19:17.836Z,59.86
2022-08-11T07:22:02.868Z,59.83
2022-08-11T07:24:34.497Z,60.18
2022-08-11T07:27:14.314Z,60.18
2022-08-11T07:29:16.666Z,60.47
2022-08-11T07:31:42.640Z,60.14
2022-08-11T07:34:05.566Z,60.05
2022-08-11T07:36:13.943Z,59.98
2022-08-11T07:38:25.340Z,59.96
2022-08-11T07:40:29.046Z,59.98
2022-08-11T07:42:36.422Z,60.06
2022-08-11T07:44:59.897Z,59.97
2022-08-11T07:47:21.055Z,60.22
2022-08-11T07:49:41.242Z,59.96
2022-08-11T07:52:02.689Z,60.10
2022-08-11T07:54:16.294Z,59.96
2022-08-11T07:56:28.112Z,59.67
2022-08-11T07:59:06.260Z,59.57
2022-08-11T08:01:30.499Z,59.35
2022-08-11T08:03:54.800Z,59.53
2022-08-11T08:06:35.658Z,59.19
2022-08-11T08:09:00.723Z,59.18
2022-08-11T08:11:27.568Z,58.72
2022-08-11T08:13:51.203Z,58.41
2022-08-11T08:16:12.435Z,58.62
2022-08-11T08:18:26.814Z,58.34
2022-08-11T08:20:34.599Z,58.12
2022-08-11T08:22:39.505Z,57.82
2022-08-11T08:24:43.003Z,57.81
2022-08-11T08:27:03.811Z,57.74
2022-08-11T08:29:25.906Z,57.08
2022-08-11T08:31:27.835Z,56.91
2022-08-11T08:33:32.170Z,56.10
2022-08-11T08:35:36.742Z,55.84
2022-08-11T08:37:58.101Z,55.85
2022-08-11T08:40:00.237Z,56.07
2022-08-11T08:42:07.186Z,55.82
2022-08-11T08:44:37.324Z,55.38
2022-08-11T08:46:42.703Z,54.54
2022-08-11T08:48:47.195Z,54.38
2022-08-11T08:51:12.573Z,54.23
2022-08-11T08:53:18.355Z,53.81
2022-08-11T08:55:21.491Z,53.40
2022-08-11T08:57:24.337Z,53.33
2022-08-11T08:59:47.971Z,53.12
2022-08-11T09:02:01.606Z,52.95
2022-08-11T09:04:11.749Z,52.98
2022-08-11T09:06:17.324Z,52.75
2022-08-11T09:08:19.535Z,52.37
2022-08-11T09:10:21.722Z,52.38
2022-08-11T09:12:36.039Z,52.38
2022-08-11T09:15:11.118Z,51.76
2022-08-11T09:17:14.150Z,51.15
2022-08-11T09:19:18.168Z,50.41
2022-08-11T09:21:49.286Z,50.36
2022-08-11T09:24:10.107Z,50.01
2022-08-11T09:26:35.496Z,49.70
2022-08-11T09:28:37.640Z,49.01
2022-08-11T09:30:42.806Z,48.88
2022-08-11T09:32:44.722Z,48.61
2022-08-11T09:34:47.441Z,47.93
2022-08-11T09:37:09.282Z,47.47
2022-08-11T09:39:31.612Z,46.87
2022-08-11T09:42:01.217Z,46.83
2022-08-11T09:44:15.633Z,46.21
2022-08-11T09:46:27.393Z,46.10
2022-08-11T09:48:45.872Z,44.86
2022-08-11T09:50:56.058Z,43.75
2022-08-11T09:53:34.818Z,43.00
2022-08-11T09:55:20.186Z,42.87
2022-08-11T09:57:41.506Z,42.54
2022-08-11T09:59:43.382Z,42.08
2022-08-11T10:01:52.495Z,41.75
2022-08-11T10:04:01.834Z,41.24
2022-08-11T10:06:34.101Z,40.75
2022-08-11T10:08:39.852Z,40.85
2022-08-11T10:10:42.106Z,39.65
2022-08-11T10:12:56.507Z,39.39
2022-08-11T10:15:22.908Z,39.45
2022-08-11T10:17:25.089Z,39.19
2022-08-11T10:19:27.448Z,38.58
2022-08-11T10:21:39.670Z,38.32
2022-08-11T10:24:05.559Z,38.13
2022-08-11T10:26:26.733Z,37.58
2022-08-11T10:28:50.090Z,36.49
2022-08-11T10:31:17.786Z,36.69
2022-08-11T10:33:45.717Z,37.04
2022-08-11T10:36:01.976Z,36.31
2022-08-11T10:38:08.911Z,35.94
2022-08-11T10:40:18.388Z,35.49
2022-08-11T10:42:57.284Z,35.28
2022-08-11T10:45:04.233Z,33.99
2022-08-11T10:47:25.784Z,34.34
2022-08-11T10:49:28.177Z,33.89
2022-08-11T10:51:52.086Z,33.29
2022-08-11T10:54:14.326Z,33.10
2022-08-11T10:56:36.856Z,32.74
2022-08-11T10:58:49.227Z,31.98
2022-08-11T11:00:56.990Z,31.56
2022-08-11T11:03:23.376Z,30.47
2022-08-11T11:05:30.714Z,30.27
2022-08-11T11:07:48.462Z,30.36
2022-08-11T11:10:01.757Z,29.90
2022-08-11T11:12:25.121Z,28.97
2022-08-11T11:14:58.307Z,28.49
2022-08-11T11:17:14.342Z,28.00
2022-08-11T11:19:20.886Z,27.97
2022-08-11T11:21:25.143Z,27.85
2022-08-11T11:23:48.755Z,26.74
2022-08-11T11:26:14.965Z,26.86
2022-08-11T11:28:35.092Z,26.50
2022-08-11T11:31:11.652Z,27.48
2022-08-11T11:34:06.580Z,27.16
2022-08-11T11:36:17.313Z,27.01
2022-08-11T11:38:19.473Z,26.86
2022-08-11T11:40:28.678Z,27.12
2022-08-11T11:42:33.834Z,26.41
2022-08-11T11:44:38.226Z,26.60
2022-08-11T11:46:41.613Z,26.46
2022-08-11T11:48:43.914Z,26.15
2022-08-11T11:50:45.881Z,26.36
2022-08-11T11:52:47.727Z,25.66
2022-08-11T11:54:53.445Z,25.04
2022-08-11T11:56:57.659Z,24.83
2022-08-11T11:59:18.274Z,24.70
2022-08-11T12:01:24.214Z,25.00
2022-08-11T12:03:26.833Z,25.07
2022-08-11T12:05:29.001Z,24.09
2022-08-11T12:07:56.996Z,23.54
2022-08-11T12:10:12.514Z,23.24
2022-08-11T12:12:34.953Z,23.75
2022-08-11T12:14:37.299Z,23.29
2022-08-11T12:16:44.680Z,23.20
2022-08-11T12:18:49.581Z,23.02
2022-08-11T12:20:53.906Z,22.63
2022-08-11T12:23:16.220Z,22.36
2022-08-11T12:25:39.854Z,22.14
2022-08-11T12:27:42.336Z,22.22
2022-08-11T12:29:50.110Z,22.10
2022-08-11T12:31:58.756Z,22.35
2022-08-11T12:34:09.220Z,22.44
2022-08-11T12:36:15.939Z,22.48
2022-08-11T12:38:26.063Z,22.46
2022-08-11T12:41:15.153Z,22.58
2022-08-11T12:43:40.821Z,22.76
2022-08-11T12:45:44.127Z,22.32
2022-08-11T12:48:59.109Z,22.00
2022-08-11T12:50:52.590Z,22.01
2022-08-11T12:52:57.109Z,22.13
2022-08-11T12:55:14.101Z,22.45
2022-08-11T12:57:47.621Z,21.81
2022-08-11T13:00:08.816Z,21.23
2022-08-11T13:02:35.708Z,21.17
2022-08-11T13:04:56.243Z,21.67
2022-08-11T13:06:59.109Z,21.06
2022-08-11T13:09:01.656Z,21.31
2022-08-11T13:11:23.263Z,21.49
2022-08-11T13:13:52.935Z,21.45
2022-08-11T13:15:49.971Z,20.93
2022-08-11T13:17:54.118Z,20.81
2022-08-11T13:19:58.838Z,20.94
2022-08-11T13:22:02.556Z,21.05
2022-08-11T13:24:04.748Z,20.63
2022-08-11T13:26:08.973Z,20.76
2022-08-11T13:28:12.724Z,21.04
2022-08-11T13:30:40.310Z,20.69
2022-08-11T13:32:45.842Z,20.31
2022-08-11T13:34:48.253Z,20.87
2022-08-11T13:36:55.331Z,20.58
2022-08-11T13:39:01.123Z,20.56
2022-08-11T13:41:23.191Z,20.18
2022-08-11T13:43:25.701Z,19.79
2022-08-11T13:45:28.111Z,20.29
2022-08-11T13:47:30.381Z,20.81
2022-08-11T13:49:35.678Z,21.01
2022-08-11T13:51:41.149Z,21.13
2022-08-11T13:53:43.800Z,21.33
2022-08-11T13:55:51.463Z,21.11
2022-08-11T13:58:09.072Z,21.18
2022-08-11T14:00:25.094Z,20.93
2022-08-11T14:02:31.104Z,20.35
2022-08-11T14:04:43.876Z,20.75
2022-08-11T14:06:51.103Z,20.91
2022-08-11T14:08:55.137Z,20.63
2022-08-11T14:12:21.618Z,20.54
2022-08-11T14:13:48.072Z,20.18
2022-08-11T14:15:50.759Z,20.70
2022-08-11T14:17:57.254Z,20.68
2022-08-11T14:20:38.677Z,20.81
2022-08-11T14:22:28.035Z,20.58
2022-08-11T14:24:30.241Z,20.54
2022-08-11T14:26:39.117Z,20.97
2022-08-11T14:28:45.127Z,20.60
2022-08-11T14:31:00.462Z,20.91
2022-08-11T14:33:17.356Z,20.75
2022-08-11T14:35:22.545Z,20.75
2022-08-11T14:37:27.810Z,20.27
2022-08-11T14:39:36.007Z,20.32
2022-08-11T14:42:09.963Z,20.65
2022-08-11T14:44:33.980Z,20.10
2022-08-11T14:46:55.589Z,21.43
2022-08-11T14:48:58.062Z,19.36
2022-08-11T14:51:00.020Z,19.31
2022-08-11T14:53:11.290Z,19.83
2022-08-11T14:55:41.297Z,19.55
2022-08-11T14:58:04.695Z,19.90
2022-08-11T15:00:09.050Z,19.80
2022-08-11T15:02:31.349Z,19.85
2022-08-11T15:04:36.533Z,19.72
2022-08-11T15:06:40.550Z,19.87
2022-08-11T15:08:54.826Z,19.85
2022-08-11T15:10:56.605Z,19.72
2022-08-11T15:13:00.426Z,19.56
2022-08-11T15:15:25.145Z,19.88
2022-08-11T15:17:29.457Z,19.78
2022-08-11T15:20:05.251Z,19.88
2022-08-11T15:22:28.005Z,20.04
2022-08-11T15:24:31.102Z,19.92
2022-08-11T15:26:58.870Z,19.91
2022-08-11T15:29:23.080Z,20.04
2022-08-11T15:31:49.432Z,19.91
2022-08-11T15:34:14.608Z,19.98
2022-08-11T15:36:39.771Z,20.20
2022-08-11T15:38:54.990Z,19.95
2022-08-11T15:41:16.867Z,19.99
2022-08-11T15:43:44.797Z,20.47
2022-08-11T15:45:52.090Z,19.97
2022-08-11T15:48:05.567Z,20.66
2022-08-11T15:50:14.113Z,20.25
2022-08-11T15:52:23.111Z,20.70
2022-08-11T15:54:31.216Z,20.43
2022-08-11T15:56:35.365Z,20.75
2022-08-11T15:59:40.897Z,20.88
2022-08-11T16:01:44.262Z,21.03
2022-08-11T16:04:12.603Z,21.11
2022-08-11T16:06:14.712Z,20.70
2022-08-11T16:08:29.527Z,21.51
2022-08-11T16:10:36.537Z,20.81
2022-08-11T16:13:06.023Z,20.88
2022-08-11T16:15:34.181Z,20.62
2022-08-11T16:17:41.656Z,20.95
2022-08-11T16:19:46.004Z,21.09
2022-08-11T16:21:50.790Z,20.31
2022-08-11T16:23:55.465Z,20.47
2022-08-11T16:27:07.218Z,20.89
2022-08-11T16:28:22.619Z,20.90
2022-08-11T16:30:26.072Z,20.85
2022-08-11T16:32:28.589Z,21.42
2022-08-11T16:34:49.794Z,21.09
2022-08-11T16:37:10.103Z,21.21
2022-08-11T16:39:13.665Z,21.22
2022-08-11T16:41:41.359Z,21.63
2022-08-11T16:44:07.812Z,21.48
2022-08-11T16:46:31.330Z,21.55
2022-08-11T16:48:38.618Z,21.86
2022-08-11T16:50:42.107Z,21.36
2022-08-11T16:52:43.938Z,21.73
2022-08-11T16:54:47.780Z,21.62
2022-08-11T16:56:52.016Z,22.15
2022-08-11T16:59:17.136Z,22.32
2022-08-11T17:01:21.694Z,21.87
2022-08-11T17:03:42.336Z,22.15
2022-08-11T17:06:08.805Z,22.24
2022-08-11T17:08:29.186Z,22.21
2022-08-11T17:10:56.677Z,22.14
2022-08-11T17:13:09.414Z,22.17
2022-08-11T17:15:38.350Z,22.08
2022-08-11T17:17:41.094Z,22.36
2022-08-11T17:20:41.623Z,22.50
2022-08-11T17:22:29.881Z,22.52
2022-08-11T17:24:37.238Z,22.80
2022-08-11T17:26:55.760Z,22.71
2022-08-11T17:29:01.140Z,22.81
2022-08-11T17:31:23.065Z,22.68
2022-08-11T17:33:43.916Z,22.49
2022-08-11T17:35:45.740Z,22.93
2022-08-11T17:37:49.160Z,23.02
2022-08-11T17:39:53.605Z,23.08
2022-08-11T17:42:15.064Z,23.13
2022-08-11T17:44:35.591Z,23.14
2022-08-11T17:47:01.075Z,23.09
2022-08-11T17:49:10.220Z,23.75
2022-08-11T17:51:34.541Z,23.15
2022-08-11T17:54:10.045Z,22.91
2022-08-11T17:56:44.237Z,22.97
2022-08-11T17:59:07.289Z,23.22
2022-08-11T18:01:11.403Z,22.83
2022-08-11T18:03:29.767Z,22.83
2022-08-11T18:05:34.624Z,22.95
2022-08-11T18:07:56.843Z,23.25
2022-08-11T18:10:17.430Z,22.94
2022-08-11T18:12:37.859Z,23.23
2022-08-11T18:14:58.778Z,23.21
2022-08-11T18:17:19.300Z,23.38
2022-08-11T18:19:39.240Z,23.29
2022-08-11T18:22:14.338Z,23.43
2022-08-11T18:24:38.951Z,23.63
2022-08-11T18:27:03.246Z,23.88
2022-08-11T18:29:25.914Z,24.11
2022-08-11T18:31:46.826Z,24.25
2022-08-11T18:34:16.355Z,24.65
2022-08-11T18:36:42.431Z,24.66
2022-08-11T18:39:06.701Z,24.85
2022-08-11T18:41:29.607Z,24.85
2022-08-11T18:43:53.533Z,24.95
2022-08-11T18:46:20.125Z,24.86
2022-08-11T18:48:42.603Z,25.13
2022-08-11T18:51:29.989Z,25.57
2022-08-11T18:53:47.531Z,25.71
2022-08-11T18:56:08.515Z,25.92
2022-08-11T18:58:33.339Z,26.01
2022-08-11T19:00:56.414Z,26.04
2022-08-11T19:03:18.643Z,26.33
2022-08-11T19:06:32.026Z,26.34
2022-08-11T19:08:22.938Z,26.59
2022-08-11T19:10:43.972Z,26.41
2022-08-11T19:13:06.611Z,26.63
2022-08-11T19:15:31.707Z,27.18
2022-08-11T19:17:54.804Z,27.08
2022-08-11T19:20:17.362Z,27.24
2022-08-11T19:22:40.052Z,27.28
2022-08-11T19:25:10.379Z,27.69
2022-08-11T19:27:32.758Z,27.63
2022-08-11T19:30:07.785Z,27.64
2022-08-11T19:32:35.728Z,28.20
2022-08-11T19:34:57.522Z,28.23
2022-08-11T19:37:24.067Z,28.12
2022-08-11T19:39:47.375Z,28.46
2022-08-11T19:42:08.743Z,28.00
2022-08-11T19:44:30.858Z,27.90
2022-08-11T19:46:55.016Z,28.21
2022-08-11T19:49:18.039Z,28.50
2022-08-11T19:51:39.291Z,28.46
2022-08-11T19:54:00.964Z,28.73
2022-08-11T19:56:22.243Z,28.43
2022-08-11T19:58:43.843Z,28.48
2022-08-11T20:01:05.162Z,28.61
2022-08-11T20:03:28.834Z,29.07
2022-08-11T20:05:59.775Z,28.98
2022-08-11T20:08:21.187Z,29.17
2022-08-11T20:10:43.478Z,29.20
2022-08-11T20:13:04.974Z,29.52
2022-08-11T20:15:31.967Z,29.36
2022-08-11T20:17:56.682Z,29.51
2022-08-11T20:20:22.124Z,29.80
2022-08-11T20:22:45.564Z,29.60
2022-08-11T20:25:11.219Z,29.57
2022-08-11T20:27:33.284Z,29.75
2022-08-11T20:29:55.110Z,29.82
2022-08-11T20:32:17.112Z,30.12
2022-08-11T20:34:38.782Z,29.66
2022-08-11T20:37:00.229Z,29.73
2022-08-11T20:39:22.270Z,29.81
2022-08-11T20:41:58.967Z,30.36
2022-08-11T20:44:21.715Z,29.71
2022-08-11T20:46:43.952Z,29.52
2022-08-11T20:49:05.108Z,29.82
2022-08-11T20:51:26.086Z,29.45
2022-08-11T20:53:47.471Z,28.92
2022-08-11T20:56:08.881Z,29.04
2022-08-11T20:58:49.128Z,28.79
2022-08-11T21:01:20.290Z,29.17
2022-08-11T21:03:54.765Z,28.96
2022-08-11T21:06:31.636Z,29.41
2022-08-11T21:08:55.833Z,29.58
2022-08-11T21:13:58.398Z,30.23
2022-08-11T21:16:25.359Z,30.73
2022-08-11T21:18:51.046Z,31.05
2022-08-11T21:21:16.407Z,31.90
2022-08-11T21:23:37.537Z,31.76
2022-08-11T21:26:04.492Z,32.27
2022-08-11T21:28:28.515Z,32.60
2022-08-11T21:30:49.942Z,32.95
2022-08-11T21:33:11.717Z,32.99
2022-08-11T21:35:35.861Z,33.45
2022-08-11T21:38:07.376Z,33.79
2022-08-11T21:40:30.037Z,33.57
2022-08-11T21:42:55.330Z,33.70
2022-08-11T21:45:19.571Z,33.73
2022-08-11T21:47:44.302Z,33.92
2022-08-11T21:50:06.174Z,33.71
2022-08-11T21:52:27.038Z,33.77
2022-08-11T21:54:47.499Z,34.15
2022-08-11T21:57:09.019Z,34.30
2022-08-11T21:59:31.398Z,34.63
2022-08-11T22:01:51.915Z,34.87
2022-08-11T22:04:14.415Z,34.77
2022-08-11T22:06:35.864Z,35.03
2022-08-11T22:08:56.497Z,34.98
2022-08-11T22:11:16.956Z,35.06
2022-08-11T22:14:07.014Z,35.18
2022-08-11T22:16:29.059Z,35.46
2022-08-11T22:18:53.608Z,35.28
2022-08-11T22:21:56.830Z,35.67
2022-08-11T22:23:59.193Z,35.57
2022-08-11T22:26:20.836Z,35.80
2022-08-11T22:28:43.028Z,35.51
2022-08-11T22:31:03.516Z,35.66
2022-08-11T22:33:28.754Z,36.07
2022-08-11T22:35:50.664Z,36.07
2022-08-11T22:38:11.629Z,36.17
2022-08-11T22:40:33.040Z,35.89
2022-08-11T22:42:53.631Z,36.29
2022-08-11T22:45:14.677Z,36.66
2022-08-11T22:47:40.558Z,36.36
2022-08-11T22:50:01.668Z,36.49
2022-08-11T22:52:22.275Z,36.53
2022-08-11T22:54:43.399Z,36.70
2022-08-11T22:57:03.981Z,36.83
2022-08-11T22:59:25.930Z,36.82
2022-08-11T23:01:55.339Z,36.68
2022-08-11T23:04:19.762Z,36.53
2022-08-11T23:06:41.045Z,36.41
2022-08-11T23:09:01.808Z,36.32
2022-08-11T23:11:23.221Z,36.82
2022-08-11T23:13:44.907Z,36.55
2022-08-11T23:16:05.422Z,36.58
2022-08-11T23:18:26.247Z,36.63
2022-08-11T23:20:55.102Z,36.87
2022-08-11T23:23:16.397Z,36.67
2022-08-11T23:25:36.767Z,37.11
2022-08-11T23:27:57.612Z,37.30
2022-08-11T23:30:19.881Z,37.33
2022-08-11T23:32:44.506Z,37.61
2022-08-11T23:35:39.884Z,37.61
2022-08-11T23:37:55.617Z,37.71
2022-08-11T23:40:20.440Z,37.61
2022-08-11T23:42:43.430Z,37.96
2022-08-11T23:45:18.474Z,37.80
2022-08-11T23:47:50.105Z,37.87
2022-08-11T23:50:11.352Z,38.00
2022-08-11T23:52:37.566Z,38.18
2022-08-11T23:54:58.779Z,37.81
2022-08-11T23:57:18.971Z,38.12
2022-08-11T23:59:39.583Z,38.58
